Time;durP1;ratioP1;P1;durP2;ratioP2;P2;SDS_P1;SDS_P2;PMS_P1;PMS_P2;Temp;Humidity;BMP_temperature;BMP_pressure;BME280_temperature;BME280_humidity;BME280_pressure;Samples;Min_cycle;Max_cycle;Signal;HPM_P1;HPM_P2
2022/06/15 00:01:17;;;;;;;3.58;2.90;;;;;;;;;;4969510;28;20030;-73
2022/06/15 00:03:43;;;;;;;;;;;;;;;;;;4969285;28;20391;-73
2022/06/15 00:06:11;;;;;;;4.47;2.90;;;;;;;;;;4968976;28;19910;-76
2022/06/15 00:08:38;;;;;;;7.55;3.72;;;;;;;;;;4970031;28;20077;-75
2022/06/15 00:11:12;;;;;;;6.97;3.38;;;;;;;;;;4970004;28;20433;-74
2022/06/15 00:13:37;;;;;;;7.43;3.70;;;;;;;;;;4972763;28;20053;-73
2022/06/15 00:16:04;;;;;;;7.03;3.20;;;;;;;;;;4973825;28;20551;-73
2022/06/15 00:18:30;;;;;;;5.63;3.30;;;;;;;;;;4972044;28;20114;-74
2022/06/15 00:20:57;;;;;;;9.05;3.55;;;;;;;;;;4972140;28;20453;-73
2022/06/15 00:23:23;;;;;;;6.65;3.28;;;;;;;;;;4989971;28;20065;-73
2022/06/15 00:25:50;;;;;;;5.68;3.60;;;;;;;;;;4991351;28;20100;-72
2022/06/15 00:28:16;;;;;;;6.97;3.72;;;;;;;;;;4992841;28;20036;-73
2022/06/15 00:30:44;;;;;;;5.85;3.80;;;;;;;;;;4992534;28;20030;-73
2022/06/15 00:33:09;;;;;;;8.05;3.72;;;;;;;;;;4991268;28;20026;-73
2022/06/15 00:35:35;;;;;;;5.60;3.85;;;;;;;;;;4991296;28;20084;-73
2022/06/15 00:38:00;;;;;;;8.25;3.97;;;;;;;;;;4991094;28;20038;-72
2022/06/15 00:40:27;;;;;;;8.90;3.92;;;;;;;;;;4991156;28;20031;-74
2022/06/15 00:42:52;;;;;;;4.75;3.60;;;;;;;;;;4992710;28;20076;-73
2022/06/15 00:45:18;;;;;;;6.13;3.33;;;;;;;;;;4992582;28;20483;-72
2022/06/15 00:47:46;;;;;;;5.65;3.45;;;;;;;;;;4992126;28;20054;-73
2022/06/15 00:50:24;;;;;;;8.27;4.18;;;;;;;;;;4992567;28;20757;-73
2022/06/15 00:52:59;;;;;;;7.10;3.75;;;;;;;;;;4992643;28;20038;-73
2022/06/15 00:55:28;;;;;;;4.00;3.65;;;;;;;;;;4990639;28;20112;-73
2022/06/15 00:57:56;;;;;;;5.43;3.60;;;;;;;;;;4992158;28;20027;-73
2022/06/15 01:00:22;;;;;;;7.65;4.20;;;;;;;;;;4990665;28;20038;-72
2022/06/15 01:02:48;;;;;;;5.93;4.00;;;;;;;;;;4990911;28;20065;-73
2022/06/15 01:05:19;;;;;;;11.63;4.40;;;;;;;;;;4990760;28;20513;-73
2022/06/15 01:08:14;;;;;;;11.57;4.72;;;;;;;;;;4974360;28;20026;-73
2022/06/15 01:10:51;;;;;;;8.43;5.03;;;;;;;;;;4991930;28;20030;-71
2022/06/15 01:13:27;;;;;;;8.75;5.00;;;;;;;;;;4990732;28;20038;-72
2022/06/15 01:16:01;;;;;;;7.10;4.47;;;;;;;;;;4990924;28;20034;-72
2022/06/15 01:18:55;;;;;;;6.72;4.60;;;;;;;;;;4991630;28;20023;-72
2022/06/15 01:21:26;;;;;;;11.05;4.68;;;;;;;;;;4991485;28;20070;-73
2022/06/15 01:24:19;;;;;;;8.18;4.88;;;;;;;;;;4969799;28;20117;-73
2022/06/15 01:27:07;;;;;;;5.30;4.80;;;;;;;;;;4970691;28;20027;-73
2022/06/15 01:29:54;;;;;;;9.02;5.05;;;;;;;;;;4972035;28;20054;-73
2022/06/15 01:32:34;;;;;;;6.13;4.78;;;;;;;;;;4971115;28;20027;-73
2022/06/15 01:35:14;;;;;;;6.60;4.85;;;;;;;;;;4970782;28;20047;-73
2022/06/15 01:37:47;;;;;;;5.30;4.50;;;;;;;;;;4970338;28;20450;-72
2022/06/15 01:40:32;;;;;;;12.15;4.57;;;;;;;;;;4970784;28;20395;-72
2022/06/15 01:43:05;;;;;;;7.97;5.15;;;;;;;;;;4970856;28;20114;-73
2022/06/15 01:45:35;;;;;;;9.02;5.07;;;;;;;;;;4971666;28;20035;-73
2022/06/15 01:48:05;;;;;;;6.95;4.72;;;;;;;;;;4970677;28;20487;-72
2022/06/15 01:50:47;;;;;;;7.47;5.10;;;;;;;;;;4976386;28;20038;-72
2022/06/15 01:53:23;;;;;;;11.05;5.88;;;;;;;;;;4980410;28;20441;-73
2022/06/15 01:56:00;;;;;;;8.43;5.85;;;;;;;;;;4971946;28;20113;-72
2022/06/15 01:58:30;;;;;;;9.30;6.68;;;;;;;;;;4970380;28;20089;-72
2022/06/15 02:01:10;;;;;;;8.80;6.32;;;;;;;;;;4971646;28;20543;-72
2022/06/15 02:03:46;;;;;;;8.68;5.90;;;;;;;;;;4969954;28;20034;-73
2022/06/15 02:06:31;;;;;;;8.93;6.32;;;;;;;;;;4971574;28;20030;-72
2022/06/15 02:09:18;;;;;;;7.57;5.60;;;;;;;;;;4971553;28;20037;-73
2022/06/15 02:11:44;;;;;;;10.77;6.15;;;;;;;;;;4970065;28;20027;-71
2022/06/15 02:14:21;;;;;;;11.82;6.10;;;;;;;;;;4970323;28;20034;-72
2022/06/15 02:16:53;;;;;;;7.68;6.40;;;;;;;;;;4969814;28;20114;-73
2022/06/15 02:19:30;;;;;;;8.15;5.95;;;;;;;;;;4953741;28;20439;-72
2022/06/15 02:21:57;;;;;;;12.80;6.50;;;;;;;;;;4959405;28;20032;-73
2022/06/15 02:24:24;;;;;;;11.90;6.97;;;;;;;;;;4990354;28;20081;-73
2022/06/15 02:26:50;;;;;;;11.10;6.57;;;;;;;;;;4988990;28;20453;-73
2022/06/15 02:29:20;;;;;;;8.93;5.95;;;;;;;;;;4988929;28;20112;-72
2022/06/15 02:31:46;;;;;;;9.85;6.32;;;;;;;;;;4988813;28;20479;-73
2022/06/15 02:34:11;;;;;;;11.70;5.95;;;;;;;;;;4989038;28;20030;-73
2022/06/15 02:36:37;;;;;;;14.30;5.78;;;;;;;;;;4988754;28;20022;-73
2022/06/15 02:39:07;;;;;;;9.18;6.15;;;;;;;;;;4988774;28;20034;-73
2022/06/15 02:41:33;;;;;;;9.68;5.57;;;;;;;;;;4988837;28;20037;-73
2022/06/15 02:44:01;;;;;;;6.55;5.90;;;;;;;;;;4988921;28;20366;-73
2022/06/15 02:46:32;;;;;;;10.13;6.00;;;;;;;;;;4990343;28;20092;-72
2022/06/15 02:48:58;;;;;;;8.60;5.28;;;;;;;;;;4988904;28;20030;-72
2022/06/15 02:51:32;;;;;;;9.25;5.93;;;;;;;;;;4990399;28;20038;-72
2022/06/15 02:54:07;;;;;;;8.27;6.03;;;;;;;;;;4990212;28;20105;-72
2022/06/15 02:56:34;;;;;;;11.77;7.45;;;;;;;;;;4989898;28;20138;-72
2022/06/15 02:59:00;;;;;;;12.13;6.70;;;;;;;;;;4988864;28;20057;-72
2022/06/15 03:01:26;;;;;;;11.20;7.93;;;;;;;;;;4988945;28;20030;-72
2022/06/15 03:03:51;;;;;;;11.15;7.88;;;;;;;;;;4989840;28;20061;-73
2022/06/15 03:06:19;;;;;;;17.25;8.13;;;;;;;;;;4988622;28;20418;-71
2022/06/15 03:08:45;;;;;;;13.10;7.10;;;;;;;;;;4988292;28;20514;-73
2022/06/15 03:11:11;;;;;;;13.23;7.90;;;;;;;;;;4988399;28;20119;-73
2022/06/15 03:13:37;;;;;;;15.00;7.65;;;;;;;;;;4988223;28;20478;-73
2022/06/15 03:16:04;;;;;;;18.67;7.38;;;;;;;;;;4989937;28;20026;-72
2022/06/15 03:18:31;;;;;;;16.48;8.35;;;;;;;;;;4988218;28;20054;-72
2022/06/15 03:21:00;;;;;;;17.00;8.15;;;;;;;;;;4989872;28;20034;-72
2022/06/15 03:23:26;;;;;;;14.40;8.27;;;;;;;;;;4972671;28;20038;-72
2022/06/15 03:26:00;;;;;;;19.55;8.20;;;;;;;;;;4968931;28;20042;-73
2022/06/15 03:28:26;;;;;;;14.98;7.85;;;;;;;;;;4952522;28;20450;-72
2022/06/15 03:30:52;;;;;;;22.27;9.00;;;;;;;;;;4968773;28;20174;-73
2022/06/15 03:33:18;;;;;;;17.17;9.77;;;;;;;;;;4970285;28;20046;-72
2022/06/15 03:35:46;;;;;;;18.23;8.27;;;;;;;;;;4968896;28;20073;-72
2022/06/15 03:38:12;;;;;;;17.08;8.55;;;;;;;;;;4968647;28;20125;-72
2022/06/15 03:40:41;;;;;;;13.07;8.43;;;;;;;;;;4970216;28;20169;-72
2022/06/15 03:43:07;;;;;;;14.82;10.10;;;;;;;;;;4970322;28;20034;-72
2022/06/15 03:45:33;;;;;;;13.60;8.48;;;;;;;;;;4968752;28;20053;-73
2022/06/15 03:47:59;;;;;;;14.52;8.15;;;;;;;;;;4972182;28;20041;-72
2022/06/15 03:50:28;;;;;;;16.85;8.57;;;;;;;;;;4973977;28;20535;-72
2022/06/15 03:52:53;;;;;;;15.18;8.98;;;;;;;;;;4972576;28;20031;-72
2022/06/15 03:55:20;;;;;;;12.20;8.98;;;;;;;;;;4972501;28;20447;-73
2022/06/15 03:57:46;;;;;;;13.60;8.18;;;;;;;;;;4973447;28;20037;-73
2022/06/15 04:00:19;;;;;;;16.80;7.75;;;;;;;;;;4972301;28;20042;-73
2022/06/15 04:02:48;;;;;;;9.45;7.03;;;;;;;;;;4973452;28;20022;-73
2022/06/15 04:05:20;;;;;;;13.25;8.43;;;;;;;;;;4956589;28;20050;-73
2022/06/15 04:10:31;;;;;;;11.13;7.03;;;;;;;;;;4973964;28;20239;-72
2022/06/15 04:12:56;;;;;;;18.70;7.63;;;;;;;;;;4973339;28;20035;-72
2022/06/15 04:15:22;;;;;;;9.98;6.43;;;;;;;;;;4972260;28;20030;-72
2022/06/15 04:17:48;;;;;;;10.85;6.57;;;;;;;;;;4973797;28;20054;-73
2022/06/15 04:20:32;;;;;;;10.35;5.88;;;;;;;;;;4973348;28;20031;-71
2022/06/15 04:23:03;;;;;;;7.82;6.38;;;;;;;;;;4986941;28;20045;-73
2022/06/15 04:25:30;;;;;;;13.60;6.83;;;;;;;;;;4992790;28;20334;-73
2022/06/15 04:27:57;;;;;;;10.02;6.70;;;;;;;;;;4991252;28;20045;-73
2022/06/15 04:30:23;;;;;;;12.35;6.70;;;;;;;;;;4992500;28;20062;-73
2022/06/15 04:32:49;;;;;;;15.82;7.38;;;;;;;;;;4992695;28;20026;-73
2022/06/15 04:35:15;;;;;;;9.40;6.95;;;;;;;;;;4992585;28;20031;-71
2022/06/15 04:37:41;;;;;;;11.77;6.55;;;;;;;;;;4992358;28;20085;-72
2022/06/15 04:40:07;;;;;;;11.60;6.82;;;;;;;;;;4991437;28;20382;-73
2022/06/15 04:42:35;;;;;;;11.23;6.50;;;;;;;;;;4991189;28;20066;-72
2022/06/15 04:45:00;;;;;;;12.57;7.13;;;;;;;;;;4992369;28;20109;-73
2022/06/15 04:47:25;;;;;;;17.38;7.38;;;;;;;;;;4990926;28;20109;-72
2022/06/15 04:49:51;;;;;;;13.65;7.50;;;;;;;;;;4990943;28;20458;-71
2022/06/15 04:52:18;;;;;;;9.35;6.45;;;;;;;;;;4992285;28;20023;-72
2022/06/15 04:54:43;;;;;;;17.75;8.45;;;;;;;;;;4990779;28;20129;-71
2022/06/15 04:57:09;;;;;;;15.25;7.20;;;;;;;;;;4992233;28;20105;-72
2022/06/15 04:59:34;;;;;;;11.25;6.28;;;;;;;;;;4990698;28;20418;-72
2022/06/15 05:02:00;;;;;;;12.43;7.28;;;;;;;;;;4992345;28;20126;-72
2022/06/15 05:04:25;;;;;;;10.45;6.47;;;;;;;;;;4991001;28;20490;-72
2022/06/15 05:06:54;;;;;;;10.75;6.68;;;;;;;;;;4992212;28;20030;-70
2022/06/15 05:09:19;;;;;;;11.13;7.15;;;;;;;;;;4991821;28;20061;-71
2022/06/15 05:11:46;;;;;;;14.40;6.95;;;;;;;;;;4990414;28;20557;-71
2022/06/15 05:14:12;;;;;;;8.18;6.22;;;;;;;;;;4990480;28;20129;-71
2022/06/15 05:16:38;;;;;;;11.23;6.85;;;;;;;;;;4992055;28;20152;-71
2022/06/15 05:19:04;;;;;;;13.65;6.57;;;;;;;;;;4992054;28;20037;-72
2022/06/15 05:21:30;;;;;;;10.32;8.60;;;;;;;;;;4990550;28;20478;-72
2022/06/15 05:23:56;;;;;;;12.93;5.60;;;;;;;;;;4991544;28;20046;-72
2022/06/15 05:26:24;;;;;;;10.85;6.00;;;;;;;;;;4990168;28;20045;-73
2022/06/15 05:28:51;;;;;;;12.52;6.00;;;;;;;;;;4991177;28;20061;-70
2022/06/15 05:31:22;;;;;;;12.27;6.00;;;;;;;;;;4991757;28;20034;-71
2022/06/15 05:33:53;;;;;;;10.70;5.28;;;;;;;;;;4990042;28;20035;-71
2022/06/15 05:36:20;;;;;;;12.97;7.00;;;;;;;;;;4990048;28;20486;-71
2022/06/15 05:38:47;;;;;;;9.57;5.95;;;;;;;;;;4989484;28;20280;-71
2022/06/15 05:41:13;;;;;;;6.72;5.03;;;;;;;;;;4989744;28;20029;-71
2022/06/15 05:43:44;;;;;;;8.60;5.47;;;;;;;;;;5005920;28;20031;-71
2022/06/15 05:46:15;;;;;;;6.40;5.22;;;;;;;;;;4990968;28;20105;-72
2022/06/15 05:48:41;;;;;;;14.20;6.20;;;;;;;;;;4989453;28;20434;-71
2022/06/15 05:51:06;;;;;;;11.88;6.13;;;;;;;;;;4989583;28;20081;-71
2022/06/15 05:53:32;;;;;;;15.90;7.20;;;;;;;;;;4990980;28;20031;-72
2022/06/15 05:55:57;;;;;;;6.25;5.32;;;;;;;;;;4989332;28;20030;-71
2022/06/15 05:58:23;;;;;;;9.85;5.65;;;;;;;;;;4989543;28;20490;-71
2022/06/15 06:00:48;;;;;;;11.95;5.50;;;;;;;;;;4990151;28;20027;-72
2022/06/15 06:03:16;;;;;;;13.25;4.85;;;;;;;;;;4989916;28;20113;-71
2022/06/15 06:05:42;;;;;;;8.68;5.82;;;;;;;;;;5005610;28;20037;-71
2022/06/15 06:08:08;;;;;;;15.30;5.97;;;;;;;;;;4989469;28;20030;-71
2022/06/15 06:10:34;;;;;;;9.05;5.53;;;;;;;;;;5002532;28;20117;-72
2022/06/15 06:12:59;;;;;;;9.38;4.55;;;;;;;;;;4986973;28;20068;-73
2022/06/15 06:15:26;;;;;;;12.38;4.43;;;;;;;;;;4976569;28;20439;-72
2022/06/15 06:17:51;;;;;;;7.07;4.40;;;;;;;;;;4979900;28;20034;-72
2022/06/15 06:20:17;;;;;;;14.07;4.90;;;;;;;;;;4978576;28;20026;-72
2022/06/15 06:22:42;;;;;;;11.43;4.43;;;;;;;;;;4987190;28;20035;-72
2022/06/15 06:25:10;;;;;;;11.20;5.47;;;;;;;;;;4982560;28;20283;-73
2022/06/15 06:27:36;;;;;;;8.32;4.20;;;;;;;;;;4992328;28;20044;-72
2022/06/15 06:30:02;;;;;;;19.48;7.43;;;;;;;;;;4977697;28;20507;-72
2022/06/15 06:32:28;;;;;;;10.70;4.43;;;;;;;;;;5002820;28;20064;-71
2022/06/15 06:34:55;;;;;;;15.77;5.03;;;;;;;;;;5004078;28;20467;-71
2022/06/15 06:37:21;;;;;;;10.98;5.13;;;;;;;;;;4982539;28;20479;-71
2022/06/15 06:39:52;;;;;;;13.52;5.03;;;;;;;;;;4988251;28;20058;-71
2022/06/15 06:42:18;;;;;;;30.48;6.38;;;;;;;;;;5004069;28;20121;-71
2022/06/15 06:44:43;;;;;;;11.93;4.03;;;;;;;;;;4990088;28;20157;-71
2022/06/15 06:47:10;;;;;;;9.40;4.60;;;;;;;;;;4975109;28;20034;-72
2022/06/15 06:49:36;;;;;;;16.55;5.03;;;;;;;;;;4986899;28;20133;-71
2022/06/15 06:52:01;;;;;;;12.90;4.43;;;;;;;;;;4985631;28;20130;-72
2022/06/15 06:54:27;;;;;;;13.43;4.88;;;;;;;;;;4990117;28;20046;-71
2022/06/15 06:56:54;;;;;;;20.77;5.22;;;;;;;;;;4991046;28;20037;-69
2022/06/15 06:59:20;;;;;;;8.35;4.15;;;;;;;;;;4992343;28;20467;-71
2022/06/15 07:01:47;;;;;;;10.82;5.18;;;;;;;;;;5004552;28;20068;-71
2022/06/15 07:04:14;;;;;;;9.25;4.13;;;;;;;;;;4973630;28;20057;-72
2022/06/15 07:06:41;;;;;;;12.40;4.63;;;;;;;;;;4986615;28;20037;-72
2022/06/15 07:09:09;;;;;;;6.88;4.88;;;;;;;;;;4989930;28;20030;-72
2022/06/15 07:11:35;;;;;;;10.10;5.70;;;;;;;;;;4993893;28;20033;-72
2022/06/15 07:14:01;;;;;;;8.13;4.93;;;;;;;;;;4992274;28;20456;-72
2022/06/15 07:16:27;;;;;;;7.13;5.35;;;;;;;;;;4976316;28;20031;-71
2022/06/15 07:18:53;;;;;;;8.32;4.57;;;;;;;;;;4983784;28;20121;-71
2022/06/15 07:21:26;;;;;;;7.28;4.10;;;;;;;;;;4991558;28;20506;-72
2022/06/15 07:23:55;;;;;;;14.15;4.53;;;;;;;;;;4987158;28;20472;-72
2022/06/15 07:26:46;;;;;;;8.85;3.53;;;;;;;;;;4994631;28;20034;-72
2022/06/15 07:29:16;;;;;;;7.38;3.58;;;;;;;;;;4990677;28;20054;-71
2022/06/15 07:31:52;;;;;;;5.95;3.20;;;;;;;;;;4989301;28;20030;-72
2022/06/15 07:34:18;;;;;;;7.05;3.25;;;;;;;;;;4987517;28;20080;-72
2022/06/15 07:36:47;;;;;;;7.15;3.13;;;;;;;;;;4983455;28;20030;-71
2022/06/15 07:39:18;;;;;;;6.13;3.33;;;;;;;;;;4966480;28;20054;-72
2022/06/15 07:41:45;;;;;;;9.15;3.65;;;;;;;;;;4987101;28;20026;-72
2022/06/15 07:44:12;;;;;;;7.88;3.63;;;;;;;;;;5003430;28;20042;-73
2022/06/15 07:46:38;;;;;;;10.13;3.58;;;;;;;;;;4992396;28;20030;-73
2022/06/15 07:51:55;;;;;;;8.57;5.00;;;;;;;;;;4977693;28;20046;-73
2022/06/15 07:54:22;;;;;;;10.85;4.57;;;;;;;;;;4990579;28;20034;-71
2022/06/15 07:56:49;;;;;;;10.85;3.50;;;;;;;;;;5007900;28;20828;-72
2022/06/15 07:59:15;;;;;;;7.95;3.10;;;;;;;;;;4985923;28;20522;-73
2022/06/15 08:01:43;;;;;;;9.57;3.05;;;;;;;;;;4979800;28;20209;-72
2022/06/15 08:04:09;;;;;;;44.88;11.55;;;;;;;;;;4985273;28;21172;-73
2022/06/15 08:06:37;;;;;;;15.57;4.05;;;;;;;;;;4975853;28;20030;-73
2022/06/15 08:09:03;;;;;;;5.63;3.00;;;;;;;;;;4983379;28;20026;-75
2022/06/15 08:11:29;;;;;;;8.48;3.38;;;;;;;;;;4984672;28;20034;-73
2022/06/15 08:13:55;;;;;;;6.57;2.95;;;;;;;;;;4979380;28;20471;-73
2022/06/15 08:16:24;;;;;;;8.68;2.90;;;;;;;;;;4988997;28;20034;-73
2022/06/15 08:18:56;;;;;;;10.60;3.63;;;;;;;;;;4975517;28;20688;-72
2022/06/15 08:21:27;;;;;;;11.13;3.30;;;;;;;;;;4987592;28;20042;-72
2022/06/15 08:23:55;;;;;;;10.13;3.35;;;;;;;;;;5003120;28;20030;-72
2022/06/15 08:26:24;;;;;;;5.95;2.42;;;;;;;;;;4983201;28;20152;-73
2022/06/15 08:28:56;;;;;;;5.63;2.53;;;;;;;;;;4988655;28;20047;-73
2022/06/15 08:31:22;;;;;;;6.45;2.65;;;;;;;;;;4970622;28;20045;-71
2022/06/15 08:33:48;;;;;;;7.60;2.78;;;;;;;;;;4988917;28;20104;-72
2022/06/15 08:36:14;;;;;;;10.10;3.25;;;;;;;;;;4986873;28;20026;-73
2022/06/15 08:38:41;;;;;;;7.50;3.15;;;;;;;;;;4984022;28;20466;-72
2022/06/15 08:41:18;;;;;;;4.45;3.05;;;;;;;;;;4986616;28;20069;-73
2022/06/15 08:43:59;;;;;;;5.25;2.40;;;;;;;;;;4978444;28;20026;-73
2022/06/15 08:46:53;;;;;;;9.85;2.67;;;;;;;;;;4983780;28;20062;-73
2022/06/15 08:49:42;;;;;;;7.03;2.90;;;;;;;;;;4979367;28;20277;-74
2022/06/15 08:52:16;;;;;;;10.68;3.17;;;;;;;;;;4981258;28;20030;-72
2022/06/15 08:54:58;;;;;;;5.32;2.65;;;;;;;;;;4984112;28;20426;-73
2022/06/15 08:57:46;;;;;;;4.93;2.50;;;;;;;;;;4995605;28;20120;-73
2022/06/15 09:00:31;;;;;;;9.32;4.65;;;;;;;;;;4995916;28;20081;-72
2022/06/15 09:03:34;;;;;;;11.50;3.05;;;;;;;;;;4982989;28;20056;-72
2022/06/15 09:06:24;;;;;;;8.75;2.58;;;;;;;;;;5004281;28;20033;-73
2022/06/15 09:09:36;;;;;;;7.20;2.35;;;;;;;;;;4974187;28;20034;-73
2022/06/15 09:15:15;;;;;;;7.47;2.67;;;;;;;;;;4985763;28;20036;-73
2022/06/15 09:17:42;;;;;;;7.88;2.83;;;;;;;;;;4982993;28;20042;-73
2022/06/15 09:20:20;;;;;;;8.27;2.80;;;;;;;;;;4985414;28;20038;-73
2022/06/15 09:23:00;;;;;;;8.05;2.65;;;;;;;;;;4965457;28;20042;-71
2022/06/15 09:25:46;;;;;;;4.32;2.20;;;;;;;;;;4990727;28;20078;-72
2022/06/15 09:28:23;;;;;;;8.75;2.28;;;;;;;;;;4982513;28;20034;-72
2022/06/15 09:30:49;;;;;;;6.68;1.90;;;;;;;;;;4991154;28;20034;-73
2022/06/15 09:33:28;;;;;;;6.57;1.80;;;;;;;;;;4983563;28;20085;-72
2022/06/15 09:36:02;;;;;;;6.45;2.30;;;;;;;;;;4984468;28;20030;-72
2022/06/15 09:38:33;;;;;;;3.45;1.70;;;;;;;;;;4984813;28;20031;-73
2022/06/15 09:41:11;;;;;;;8.55;2.38;;;;;;;;;;4986961;28;20058;-72
2022/06/15 09:44:06;;;;;;;5.00;2.15;;;;;;;;;;4991700;28;20053;-73
2022/06/15 09:46:31;;;;;;;4.57;1.95;;;;;;;;;;4973796;28;20042;-73
2022/06/15 09:49:15;;;;;;;4.28;1.70;;;;;;;;;;4987311;28;20030;-73
2022/06/15 09:52:06;;;;;;;6.30;2.15;;;;;;;;;;4977358;28;20038;-73
2022/06/15 09:54:37;;;;;;;4.07;1.98;;;;;;;;;;5001930;28;20736;-73
2022/06/15 09:57:03;;;;;;;3.78;2.00;;;;;;;;;;4986074;28;20053;-72
2022/06/15 09:59:33;;;;;;;3.15;2.45;;;;;;;;;;4977847;28;20061;-72
2022/06/15 10:02:04;;;;;;;3.67;1.75;;;;;;;;;;4982303;28;20029;-73
2022/06/15 10:04:33;;;;;;;8.32;2.20;;;;;;;;;;4976226;28;20098;-73
2022/06/15 10:07:27;;;;;;;3.83;2.20;;;;;;;;;;4997619;28;20135;-72
2022/06/15 10:10:22;;;;;;;7.93;2.28;;;;;;;;;;4982458;28;20034;-72
2022/06/15 10:12:57;;;;;;;4.18;2.13;;;;;;;;;;4973225;28;20104;-72
2022/06/15 10:15:29;;;;;;;5.47;2.53;;;;;;;;;;4979962;28;20143;-72
2022/06/15 10:17:57;;;;;;;4.40;1.88;;;;;;;;;;4975440;28;20061;-72
2022/06/15 10:20:38;;;;;;;2.60;1.70;;;;;;;;;;4980112;28;20360;-72
2022/06/15 10:23:16;;;;;;;5.15;1.83;;;;;;;;;;4975764;28;20030;-74
2022/06/15 10:25:50;;;;;;;3.70;1.75;;;;;;;;;;4987206;28;20801;-75
2022/06/15 10:28:23;;;;;;;6.53;1.88;;;;;;;;;;4977372;28;20169;-72
2022/06/15 10:30:58;;;;;;;5.35;1.92;;;;;;;;;;4997020;28;20026;-72
2022/06/15 10:33:24;;;;;;;2.85;1.88;;;;;;;;;;4981165;28;20034;-74
2022/06/15 10:35:57;;;;;;;11.18;2.00;;;;;;;;;;4976700;28;20106;-74
2022/06/15 10:38:23;;;;;;;3.05;2.10;;;;;;;;;;4988960;28;20109;-72
2022/06/15 10:40:55;;;;;;;4.00;1.70;;;;;;;;;;4979531;28;20042;-74
2022/06/15 10:43:32;;;;;;;2.97;1.80;;;;;;;;;;4980057;28;20034;-73
2022/06/15 10:46:04;;;;;;;2.75;1.40;;;;;;;;;;4976193;28;20383;-73
2022/06/15 10:48:49;;;;;;;9.20;1.98;;;;;;;;;;4990505;28;20529;-72
2022/06/15 10:51:34;;;;;;;5.88;2.30;;;;;;;;;;4992504;28;20034;-74
2022/06/15 10:54:32;;;;;;;4.25;1.73;;;;;;;;;;4993969;28;20731;-75
2022/06/15 11:03:25;;;;;;;6.55;1.95;;;;;;;;;;4986440;28;20456;-72
2022/06/15 11:05:53;;;;;;;4.18;1.50;;;;;;;;;;4979821;28;20023;-75
2022/06/15 11:08:23;;;;;;;6.40;2.38;;;;;;;;;;4977453;28;20026;-73
2022/06/15 11:10:53;;;;;;;5.47;1.63;;;;;;;;;;4988645;28;20059;-74
2022/06/15 11:13:36;;;;;;;3.20;1.67;;;;;;;;;;4995419;28;20042;-75
2022/06/15 11:19:12;;;;;;;3.33;1.50;;;;;;;;;;4982274;28;20107;-74
2022/06/15 11:22:04;;;;;;;6.25;2.10;;;;;;;;;;4982637;28;20031;-72
2022/06/15 11:24:38;;;;;;;4.88;2.33;;;;;;;;;;4995215;28;20045;-72
2022/06/15 11:27:11;;;;;;;2.67;1.38;;;;;;;;;;4980172;28;20390;-73
2022/06/15 11:29:52;;;;;;;3.40;1.30;;;;;;;;;;4981011;28;20061;-71
2022/06/15 11:32:33;;;;;;;5.03;1.80;;;;;;;;;;4984761;28;20057;-74
2022/06/15 11:35:08;;;;;;;2.92;1.48;;;;;;;;;;4998911;28;20022;-73
2022/06/15 11:38:00;;;;;;;3.03;1.83;;;;;;;;;;4979377;28;20486;-73
2022/06/15 11:40:43;;;;;;;1.80;1.60;;;;;;;;;;4996579;28;20071;-72
2022/06/15 11:43:24;;;;;;;4.55;1.42;;;;;;;;;;4980808;28;20030;-72
2022/06/15 11:45:59;;;;;;;4.85;1.70;;;;;;;;;;4973681;28;20487;-72
2022/06/15 11:48:47;;;;;;;3.90;1.60;;;;;;;;;;4998194;28;20068;-74
2022/06/15 11:51:36;;;;;;;2.17;1.25;;;;;;;;;;4972978;28;20034;-78
2022/06/15 11:54:08;;;;;;;3.08;1.60;;;;;;;;;;4974042;28;20592;-73
2022/06/15 11:56:48;;;;;;;4.32;1.63;;;;;;;;;;4997255;28;20121;-76
2022/06/15 11:59:44;;;;;;;2.53;1.48;;;;;;;;;;4977465;28;20278;-75
2022/06/15 12:02:39;;;;;;;2.42;1.30;;;;;;;;;;4988351;28;20030;-77
2022/06/15 12:05:41;;;;;;;3.67;1.27;;;;;;;;;;4982822;28;20030;-74
2022/06/15 12:08:36;;;;;;;1.85;1.02;;;;;;;;;;4983596;28;20117;-73
2022/06/15 12:15:00;;;;;;;3.47;1.55;;;;;;;;;;4981541;28;20434;-74
2022/06/15 12:18:04;;;;;;;7.40;1.50;;;;;;;;;;4981190;28;20076;-74
2022/06/15 12:20:35;;;;;;;7.50;1.73;;;;;;;;;;4981576;28;20074;-75
2022/06/15 12:23:16;;;;;;;2.17;1.20;;;;;;;;;;4995776;28;20035;-77
2022/06/15 12:26:00;;;;;;;5.38;1.60;;;;;;;;;;4984696;28;20718;-75
2022/06/15 12:29:16;;;;;;;3.35;1.20;;;;;;;;;;4974713;28;20030;-74
2022/06/15 12:33:03;;;;;;;2.97;1.40;;;;;;;;;;4973817;28;20082;-74
2022/06/15 12:35:22;;;;;;;1.35;1.23;;;;;;;;;;4978711;28;20045;-75
2022/06/15 12:38:12;;;;;;;5.03;1.70;;;;;;;;;;4987384;28;20033;-76
2022/06/15 12:40:51;;;;;;;3.45;1.10;;;;;;;;;;4991740;28;20069;-75
2022/06/15 12:43:40;;;;;;;4.38;1.42;;;;;;;;;;4981720;28;20034;-75
2022/06/15 12:46:09;;;;;;;4.20;1.80;;;;;;;;;;4995488;28;20029;-75
2022/06/15 12:48:45;;;;;;;2.03;1.25;;;;;;;;;;4998630;28;20113;-75
2022/06/15 12:51:46;;;;;;;1.25;1.10;;;;;;;;;;4977171;28;20041;-74
2022/06/15 12:54:11;;;;;;;;;;;;;;;;;;4987074;28;20038;-73
2022/06/15 12:56:56;;;;;;;4.22;1.15;;;;;;;;;;4990840;28;20489;-73
2022/06/15 12:59:50;;;;;;;1.05;0.90;;;;;;;;;;5016426;28;20075;-73
2022/06/15 13:05:35;;;;;;;3.08;1.50;;;;;;;;;;4994791;28;20569;-72
2022/06/15 13:08:20;;;;;;;12.50;2.20;;;;;;;;;;4976624;28;20053;-73
2022/06/15 13:10:55;;;;;;;2.60;1.30;;;;;;;;;;4986609;28;20023;-73
2022/06/15 13:13:37;;;;;;;2.75;1.35;;;;;;;;;;4985421;28;20041;-74
2022/06/15 13:16:36;;;;;;;1.92;1.20;;;;;;;;;;4983157;28;20058;-72
2022/06/15 13:19:07;;;;;;;2.22;1.00;;;;;;;;;;5003925;28;20051;-73
2022/06/15 13:21:55;;;;;;;2.67;1.33;;;;;;;;;;4989876;28;20073;-72
2022/06/15 13:24:23;;;;;;;2.45;1.17;;;;;;;;;;4983702;28;20117;-73
2022/06/15 13:27:18;;;;;;;6.85;1.38;;;;;;;;;;5006450;28;20121;-74
2022/06/15 13:29:50;;;;;;;5.28;1.58;;;;;;;;;;4979618;28;20180;-73
2022/06/15 13:32:57;;;;;;;3.40;1.27;;;;;;;;;;5017529;28;20363;-72
2022/06/15 13:35:41;;;;;;;13.85;2.28;;;;;;;;;;4996998;28;20494;-73
2022/06/15 13:38:22;;;;;;;7.43;1.52;;;;;;;;;;4983274;28;20057;-74
2022/06/15 13:40:53;;;;;;;4.80;1.90;;;;;;;;;;5002007;28;20099;-74
2022/06/15 13:43:25;;;;;;;3.85;1.58;;;;;;;;;;4992198;28;20546;-73
2022/06/15 13:46:18;;;;;;;3.88;1.02;;;;;;;;;;4992311;28;20080;-73
2022/06/15 13:48:45;;;;;;;1.77;0.93;;;;;;;;;;4986184;28;20046;-73
2022/06/15 13:51:25;;;;;;;6.15;1.25;;;;;;;;;;4991964;28;20105;-74
2022/06/15 13:54:25;;;;;;;3.80;1.35;;;;;;;;;;4980872;28;20040;-74
2022/06/15 13:56:57;;;;;;;2.05;0.93;;;;;;;;;;5007499;28;20658;-73
2022/06/15 13:59:51;;;;;;;2.35;1.05;;;;;;;;;;4986621;28;20027;-72
2022/06/15 14:02:42;;;;;;;3.60;1.27;;;;;;;;;;5013832;28;20036;-73
2022/06/15 14:05:23;;;;;;;1.88;0.90;;;;;;;;;;4999532;28;20609;-72
2022/06/15 14:08:07;;;;;;;3.30;0.98;;;;;;;;;;4989818;28;20416;-74
2022/06/15 14:10:38;;;;;;;3.58;1.15;;;;;;;;;;4990823;28;20018;-73
2022/06/15 14:13:17;;;;;;;2.28;1.00;;;;;;;;;;4993408;28;20625;-74
2022/06/15 14:16:18;;;;;;;1.70;1.20;;;;;;;;;;4981556;28;20025;-74
2022/06/15 14:18:51;;;;;;;2.20;1.27;;;;;;;;;;4993132;28;20030;-74
2022/06/15 14:21:22;;;;;;;2.72;1.05;;;;;;;;;;4993236;28;20102;-73
2022/06/15 14:23:48;;;;;;;3.28;1.55;;;;;;;;;;4982109;28;20068;-73
2022/06/15 14:26:18;;;;;;;27.45;4.25;;;;;;;;;;4983932;28;20054;-74
2022/06/15 14:28:54;;;;;;;4.38;1.10;;;;;;;;;;4986076;28;20046;-74
2022/06/15 14:31:24;;;;;;;3.22;1.15;;;;;;;;;;4975097;28;20495;-74
2022/06/15 14:34:06;;;;;;;1.42;0.88;;;;;;;;;;4982252;28;20121;-74
2022/06/15 14:36:33;;;;;;;5.57;1.05;;;;;;;;;;4989183;28;20044;-74
2022/06/15 14:39:12;;;;;;;5.45;1.30;;;;;;;;;;4974253;28;20038;-74
2022/06/15 14:41:38;;;;;;;5.40;1.90;;;;;;;;;;4983550;28;20026;-74
2022/06/15 14:44:18;;;;;;;5.57;1.40;;;;;;;;;;4981735;28;20066;-73
2022/06/15 14:46:46;;;;;;;2.20;0.90;;;;;;;;;;4984214;28;20034;-74
2022/06/15 14:49:15;;;;;;;1.98;1.15;;;;;;;;;;4978328;28;20030;-74
2022/06/15 14:51:40;;;;;;;1.95;1.20;;;;;;;;;;4983261;28;20084;-75
2022/06/15 14:54:15;;;;;;;1.98;1.15;;;;;;;;;;5002700;28;20034;-74
2022/06/15 14:56:47;;;;;;;6.55;1.08;;;;;;;;;;4988405;28;20499;-74
2022/06/15 14:59:15;;;;;;;2.92;1.33;;;;;;;;;;4989012;28;20094;-76
2022/06/15 15:02:05;;;;;;;5.07;1.42;;;;;;;;;;4993829;28;20083;-74
2022/06/15 15:04:46;;;;;;;2.35;1.40;;;;;;;;;;4998745;28;20026;-74
2022/06/15 15:10:24;;;;;;;3.63;1.73;;;;;;;;;;4982148;28;20083;-75
2022/06/15 15:12:51;;;;;;;4.03;1.70;;;;;;;;;;4976324;28;20070;-75
2022/06/15 15:15:17;;;;;;;11.45;3.20;;;;;;;;;;4970247;28;20033;-75
2022/06/15 15:18:08;;;;;;;9.15;2.03;;;;;;;;;;4968764;28;20030;-74
2022/06/15 15:20:41;;;;;;;4.03;1.48;;;;;;;;;;4968673;28;20038;-75
2022/06/15 15:23:08;;;;;;;2.35;1.30;;;;;;;;;;4984509;28;20064;-75
2022/06/15 15:25:50;;;;;;;3.78;1.70;;;;;;;;;;4988742;28;20476;-75
2022/06/15 15:34:14;;;;;;;4.50;1.50;;;;;;;;;;4989568;28;20088;-75
2022/06/15 15:39:46;;;;;;;1.52;1.40;;;;;;;;;;4989752;28;20110;-75
2022/06/15 15:42:15;;;;;;;3.10;1.48;;;;;;;;;;4989561;28;20038;-75
2022/06/15 15:44:42;;;;;;;3.22;1.58;;;;;;;;;;4992361;28;20034;-74
2022/06/15 15:47:13;;;;;;;7.85;2.20;;;;;;;;;;4993877;28;20419;-78
2022/06/15 15:49:49;;;;;;;6.15;2.65;;;;;;;;;;4993435;28;20022;-76
2022/06/15 15:52:20;;;;;;;6.93;3.03;;;;;;;;;;4991571;28;20038;-75